Time;durP1;ratioP1;P1;durP2;ratioP2;P2;SDS_P1;SDS_P2;PMS_P1;PMS_P2;Temp;Humidity;BMP_temperature;BMP_pressure;BME280_temperature;BME280_humidity;BME280_pressure;Samples;Min_cycle;Max_cycle;Signal;HPM_P1;HPM_P2
2023/09/07 00:00:33;;;;;;;5.10;3.60;;;15.90;99.90;;;16.86;100.00;98502.16;5073890;28;20554;-81
2023/09/07 00:03:03;;;;;;;6.50;3.90;;;15.80;99.90;;;16.81;100.00;98502.81;5073041;28;20861;-83
2023/09/07 00:05:34;;;;;;;4.70;2.97;;;15.90;99.90;;;16.74;100.00;98501.22;5071130;28;20451;-81
2023/09/07 00:08:07;;;;;;;6.53;3.77;;;15.80;99.90;;;16.79;100.00;98501.41;5072544;28;21240;-82
2023/09/07 00:10:36;;;;;;;6.17;3.67;;;15.80;99.90;;;16.78;100.00;98499.78;5076719;28;20470;-81
2023/09/07 00:13:07;;;;;;;6.43;3.50;;;15.70;99.90;;;16.72;100.00;98496.19;5075278;28;20470;-81
2023/09/07 00:15:39;;;;;;;6.17;3.70;;;15.70;99.90;;;16.72;100.00;98495.38;5075257;28;20515;-81
2023/09/07 00:18:09;;;;;;;11.13;3.80;;;15.80;99.90;;;16.69;100.00;98509.00;5075168;28;20566;-82
2023/09/07 00:20:40;;;;;;;5.30;3.87;;;15.70;99.90;;;16.71;100.00;98493.75;5074964;28;20495;-81
2023/09/07 00:23:11;;;;;;;5.33;4.00;;;15.60;99.90;;;16.69;100.00;98504.53;5072665;28;20452;-81
2023/09/07 00:25:41;;;;;;;4.40;3.43;;;15.60;99.90;;;16.68;100.00;98495.00;5075490;28;20550;-81
2023/09/07 00:28:12;;;;;;;9.27;3.30;;;15.50;99.90;;;16.56;100.00;98500.16;5072603;28;20550;-81
2023/09/07 00:30:42;;;;;;;5.90;3.27;;;15.60;99.90;;;16.60;100.00;98498.69;5074791;28;20486;-81
2023/09/07 00:33:13;;;;;;;8.33;3.37;;;15.60;99.90;;;16.51;100.00;98505.25;5073981;28;20540;-81
2023/09/07 00:35:43;;;;;;;3.60;2.77;;;15.60;99.90;;;16.56;100.00;98502.78;5073164;28;20500;-81
2023/09/07 00:38:13;;;;;;;5.73;3.53;;;15.50;99.90;;;16.45;100.00;98492.88;5071021;28;20507;-81
2023/09/07 00:40:45;;;;;;;8.07;3.53;;;15.30;99.90;;;16.44;100.00;98498.38;5070580;28;20467;-81
2023/09/07 00:43:17;;;;;;;5.30;3.33;;;15.40;99.90;;;16.38;100.00;98493.97;5073567;28;20452;-82
2023/09/07 00:45:47;;;;;;;7.33;4.00;;;15.40;99.90;;;16.32;100.00;98494.78;5074586;28;21002;-81
2023/09/07 00:48:17;;;;;;;5.90;3.50;;;15.50;99.90;;;16.36;100.00;98494.16;5075905;28;20898;-81
2023/09/07 00:50:48;;;;;;;5.63;4.20;;;15.30;99.90;;;16.28;100.00;98486.47;5075534;28;20470;-81
2023/09/07 00:53:18;;;;;;;8.97;4.03;;;15.40;99.90;;;16.31;100.00;98483.44;5072669;28;20460;-81
2023/09/07 00:55:49;;;;;;;9.47;3.70;;;15.40;99.90;;;16.26;100.00;98491.19;5075854;28;20466;-80
2023/09/07 00:58:19;;;;;;;5.43;3.07;;;15.40;99.90;;;16.29;100.00;98487.28;5072779;28;20980;-81
2023/09/07 01:00:50;;;;;;;6.50;4.00;;;15.30;99.90;;;16.22;100.00;98489.97;5072105;28;21667;-81
2023/09/07 01:03:19;;;;;;;5.40;3.03;;;15.30;99.90;;;16.22;100.00;98489.97;5072951;28;20513;-81
2023/09/07 01:05:57;;;;;;;5.10;3.30;;;15.20;99.90;;;16.23;100.00;98485.50;5074902;28;20485;-81
2023/09/07 01:08:33;;;;;;;5.90;3.60;;;15.10;99.90;;;16.16;100.00;98485.56;5077720;28;20588;-81
2023/09/07 01:11:14;;;;;;;6.83;2.97;;;15.10;99.90;;;16.12;100.00;98481.72;5077978;28;20456;-81
2023/09/07 01:13:46;;;;;;;24.00;3.80;;;15.20;99.90;;;16.08;100.00;98485.78;5077976;28;21042;-81
2023/09/07 01:16:16;;;;;;;6.30;3.47;;;15.20;99.90;;;16.08;100.00;98478.69;5071846;28;20470;-81
2023/09/07 01:18:48;;;;;;;8.10;3.50;;;15.10;99.90;;;16.13;100.00;98471.97;5075217;28;20491;-81
2023/09/07 01:21:19;;;;;;;5.50;3.90;;;15.10;99.90;;;16.08;100.00;98473.41;5074471;28;20460;-81
2023/09/07 01:23:52;;;;;;;5.53;3.70;;;15.10;99.90;;;15.95;100.00;98475.31;5076090;28;20518;-81
2023/09/07 01:26:22;;;;;;;5.80;3.63;;;15.10;99.90;;;15.98;100.00;98466.97;5073195;28;20460;-81
2023/09/07 01:28:53;;;;;;;4.93;3.50;;;15.00;99.90;;;15.95;100.00;98475.31;5076443;28;20615;-82
2023/09/07 01:31:22;;;;;;;4.97;2.90;;;15.10;99.90;;;15.94;100.00;98477.13;5080102;28;20456;-81
2023/09/07 01:33:53;;;;;;;6.90;4.07;;;15.00;99.90;;;15.92;100.00;98473.09;5076498;28;20448;-81
2023/09/07 01:36:23;;;;;;;3.87;3.07;;;15.00;99.90;;;15.98;100.00;98472.25;5079491;28;20463;-81
2023/09/07 01:38:55;;;;;;;5.47;3.50;;;14.90;99.90;;;15.98;100.00;98477.53;5074566;28;20464;-81
2023/09/07 01:41:25;;;;;;;6.83;3.60;;;14.90;99.90;;;15.88;100.00;98482.44;5074847;28;20467;-81
2023/09/07 01:43:55;;;;;;;3.87;2.93;;;14.90;99.90;;;15.83;100.00;98484.88;5076037;28;20464;-81
2023/09/07 01:46:25;;;;;;;4.23;3.37;;;14.90;99.90;;;15.77;100.00;98475.19;5076193;28;20537;-81
2023/09/07 01:48:54;;;;;;;4.40;3.23;;;14.90;99.90;;;15.76;100.00;98473.59;5077482;28;20503;-82
2023/09/07 01:51:27;;;;;;;5.60;3.23;;;14.80;99.90;;;15.85;100.00;98474.94;5077487;28;20451;-82
2023/09/07 01:53:59;;;;;;;4.23;3.10;;;14.80;99.90;;;15.76;100.00;98463.03;5075006;28;20463;-81
2023/09/07 01:56:28;;;;;;;7.70;3.30;;;14.80;99.90;;;15.77;100.00;98469.91;5076514;28;20557;-81
2023/09/07 01:58:58;;;;;;;5.50;3.60;;;14.70;99.90;;;15.80;100.00;98470.28;5074794;28;20470;-79
2023/09/07 02:01:36;;;;;;;9.10;3.53;;;14.80;99.90;;;15.59;100.00;98474.03;5073453;28;20960;-82
2023/09/07 02:04:08;;;;;;;4.80;3.60;;;14.80;99.90;;;15.53;100.00;98466.97;5073285;28;20542;-81
2023/09/07 02:06:37;;;;;;;5.90;3.30;;;14.70;99.90;;;15.52;100.00;98473.25;5073532;28;20467;-81
2023/09/07 02:09:09;;;;;;;9.20;3.87;;;14.60;99.90;;;15.52;100.00;98473.25;5073671;28;21017;-82
2023/09/07 02:11:39;;;;;;;5.33;3.20;;;14.50;99.90;;;15.46;100.00;98474.06;5074067;28;20460;-81
2023/09/07 02:14:10;;;;;;;13.37;3.80;;;14.40;99.90;;;15.45;100.00;98476.88;5075905;28;20474;-81
2023/09/07 02:16:40;;;;;;;10.63;4.20;;;14.50;99.90;;;15.47;100.00;98475.69;5072357;28;20472;-82
2023/09/07 02:19:09;;;;;;;4.67;3.33;;;14.50;99.90;;;15.43;100.00;98478.94;5073028;28;21061;-81
2023/09/07 02:21:39;;;;;;;6.20;3.13;;;14.50;99.90;;;15.46;100.00;98475.88;5075699;28;20459;-81
2023/09/07 02:24:10;;;;;;;4.63;3.50;;;14.50;99.90;;;15.53;100.00;98466.16;5069425;28;20461;-81
2023/09/07 02:26:44;;;;;;;6.43;3.33;;;14.40;99.90;;;15.53;100.00;98468.78;5071197;28;20470;-81
2023/09/07 02:29:15;;;;;;;6.70;4.10;;;14.50;99.90;;;15.49;100.00;98468.38;5072335;28;21196;-81
2023/09/07 02:31:43;;;;;;;5.80;3.33;;;14.40;99.90;;;15.53;100.00;98469.59;5072406;28;20525;-81
2023/09/07 02:34:13;;;;;;;5.43;3.80;;;14.40;99.90;;;15.51;100.00;98471.66;5070707;28;20472;-81
2023/09/07 02:36:42;;;;;;;7.60;3.30;;;14.40;99.90;;;15.49;100.00;98472.84;5072736;28;20479;-81
2023/09/07 02:39:14;;;;;;;4.60;3.20;;;14.40;99.90;;;15.44;100.00;98464.75;5074441;28;20487;-81
2023/09/07 02:41:45;;;;;;;5.47;3.90;;;14.40;99.90;;;15.42;100.00;98469.38;5071642;28;20472;-81
2023/09/07 02:44:16;;;;;;;4.83;3.60;;;14.30;99.90;;;15.47;100.00;98473.03;5071119;28;20495;-81
2023/09/07 02:46:46;;;;;;;4.93;3.70;;;14.40;99.90;;;15.50;100.00;98470.03;5073535;28;20552;-82
2023/09/07 02:49:15;;;;;;;4.47;3.10;;;14.30;99.90;;;15.45;100.00;98471.59;5069973;28;20998;-81
2023/09/07 02:51:45;;;;;;;5.73;3.27;;;14.40;99.90;;;15.41;100.00;98471.22;5072925;28;20486;-81
2023/09/07 02:54:17;;;;;;;3.30;2.63;;;14.30;99.90;;;15.43;100.00;98463.94;5071552;28;20456;-81
2023/09/07 02:56:47;;;;;;;5.33;3.43;;;14.30;99.90;;;15.37;100.00;98464.75;5072134;28;21084;-81
2023/09/07 02:59:16;;;;;;;5.03;3.33;;;14.40;99.90;;;15.30;100.00;98469.25;5073953;28;20502;-81
2023/09/07 03:01:47;;;;;;;7.00;3.17;;;14.40;99.90;;;15.32;100.00;98458.47;5072678;28;20459;-81
2023/09/07 03:04:16;;;;;;;4.90;3.17;;;14.20;99.90;;;15.35;100.00;98458.88;5072707;28;20549;-81
2023/09/07 03:06:46;;;;;;;8.30;4.17;;;14.20;99.90;;;15.24;100.00;98459.50;5073711;28;20542;-81
2023/09/07 03:09:18;;;;;;;5.43;3.20;;;14.20;99.90;;;15.26;100.00;98457.47;5072896;28;20502;-80
2023/09/07 03:11:48;;;;;;;4.40;3.10;;;14.20;99.90;;;15.21;100.00;98449.38;5070343;28;20969;-81
2023/09/07 03:14:18;;;;;;;8.07;3.43;;;14.20;99.90;;;15.23;100.00;98457.91;5070376;28;20468;-81
2023/09/07 03:16:50;;;;;;;7.70;3.90;;;14.20;99.90;;;15.24;100.00;98453.44;5069418;28;21012;-81
2023/09/07 03:19:19;;;;;;;6.43;3.80;;;14.20;99.90;;;15.23;100.00;98452.63;5072861;28;20463;-82
2023/09/07 03:21:48;;;;;;;6.47;3.83;;;14.20;99.90;;;15.28;100.00;98452.81;5076047;28;20463;-81
2023/09/07 03:24:20;;;;;;;4.90;3.60;;;14.20;99.90;;;15.16;100.00;98451.84;5072662;28;20455;-81
2023/09/07 03:26:49;;;;;;;4.50;3.30;;;14.20;99.90;;;15.16;100.00;98446.56;5070636;28;20529;-81
2023/09/07 03:29:18;;;;;;;6.03;3.37;;;14.10;99.90;;;15.16;100.00;98451.03;5071274;28;20545;-81
2023/09/07 03:31:48;;;;;;;6.60;3.67;;;14.10;99.90;;;15.13;100.00;98448.81;5073725;28;20551;-82
2023/09/07 03:34:17;;;;;;;4.13;2.90;;;14.00;99.90;;;15.01;100.00;98448.63;5073417;28;20487;-82
2023/09/07 03:36:46;;;;;;;6.00;3.33;;;14.10;99.90;;;15.05;100.00;98447.19;5072373;28;20547;-82
2023/09/07 03:39:17;;;;;;;4.50;3.77;;;14.00;99.90;;;15.10;100.00;98448.19;5075523;28;20960;-81
2023/09/07 03:41:48;;;;;;;4.70;3.50;;;14.00;99.90;;;15.02;100.00;98448.41;5073427;28;20899;-82
2023/09/07 03:44:18;;;;;;;5.40;3.43;;;13.90;99.90;;;14.99;100.00;98443.53;5078646;28;20479;-82
2023/09/07 03:46:48;;;;;;;5.57;3.50;;;13.90;99.90;;;14.99;100.00;98450.66;5076542;28;20468;-81
2023/09/07 03:49:19;;;;;;;8.10;3.37;;;13.90;99.90;;;14.91;100.00;98453.50;5079503;28;20890;-83
2023/09/07 03:51:50;;;;;;;5.27;3.17;;;13.90;99.90;;;14.89;100.00;98442.38;5076837;28;21033;-82
2023/09/07 03:54:20;;;;;;;4.17;3.43;;;13.90;99.90;;;14.95;100.00;98444.16;5070606;28;20463;-82
2023/09/07 03:56:51;;;;;;;10.33;3.53;;;13.80;99.90;;;14.87;100.00;98439.09;5075844;28;20487;-82
2023/09/07 03:59:20;;;;;;;7.63;4.10;;;13.90;99.90;;;14.89;100.00;98440.50;5076033;28;20946;-81
2023/09/07 04:01:50;;;;;;;5.53;3.30;;;13.80;99.90;;;14.80;100.00;98443.56;5074828;28;21126;-81
2023/09/07 04:04:20;;;;;;;4.60;3.53;;;13.80;99.90;;;14.86;100.00;98442.75;5074236;28;20555;-81
2023/09/07 04:06:50;;;;;;;6.07;3.70;;;13.80;99.90;;;14.78;100.00;98449.06;5075458;28;20468;-82
2023/09/07 04:09:19;;;;;;;4.90;3.53;;;13.80;99.90;;;14.74;100.00;98447.84;5072839;28;22526;-82
2023/09/07 04:11:50;;;;;;;5.27;4.00;;;13.80;99.90;;;14.76;100.00;98442.34;5071290;28;20486;-82
2023/09/07 04:14:19;;;;;;;6.63;3.30;;;13.70;99.90;;;14.77;100.00;98446.63;5075173;28;20478;-81
2023/09/07 04:16:50;;;;;;;3.80;3.23;;;13.60;99.90;;;14.79;100.00;98441.94;5078614;28;20878;-82
2023/09/07 04:19:20;;;;;;;4.10;3.23;;;13.70;99.90;;;14.78;100.00;98441.16;5076355;28;20464;-82
2023/09/07 04:21:49;;;;;;;24.33;4.30;;;13.70;99.90;;;14.80;100.00;98440.94;5076251;28;21391;-82
2023/09/07 04:24:18;;;;;;;7.37;3.93;;;13.60;99.90;;;14.76;100.00;98435.25;5076854;28;20464;-83
2023/09/07 04:26:50;;;;;;;6.60;3.30;;;13.60;99.90;;;14.67;100.00;98441.75;5077344;28;20813;-82
2023/09/07 04:29:19;;;;;;;6.57;3.90;;;13.70;99.90;;;14.73;100.00;98448.03;5076511;28;20554;-82
2023/09/07 04:31:49;;;;;;;4.90;3.40;;;13.60;99.90;;;14.76;100.00;98444.97;5074759;28;20469;-81
2023/09/07 04:34:20;;;;;;;5.37;3.60;;;13.60;99.90;;;14.76;100.00;98451.06;5074020;28;20550;-80
2023/09/07 04:36:49;;;;;;;5.47;3.77;;;13.60;99.90;;;14.68;100.00;98445.22;5074519;28;20489;-81
2023/09/07 04:39:18;;;;;;;8.07;4.20;;;13.60;99.90;;;14.67;100.00;98447.03;5074654;28;20492;-80
2023/09/07 04:41:47;;;;;;;5.90;3.73;;;13.50;99.90;;;14.60;100.00;98449.66;5073459;28;20499;-81
2023/09/07 04:44:18;;;;;;;7.53;3.80;;;13.60;99.90;;;14.57;100.00;98444.81;5072226;28;20502;-81
2023/09/07 04:46:49;;;;;;;4.60;3.23;;;13.50;99.90;;;14.59;100.00;98448.03;5075618;28;20816;-81
2023/09/07 04:49:20;;;;;;;5.83;4.00;;;13.50;99.90;;;14.38;100.00;98444.78;5079811;28;20989;-81
2023/09/07 04:51:50;;;;;;;3.80;3.10;;;13.40;99.90;;;14.27;100.00;98448.78;5077633;28;20810;-80
2023/09/07 04:54:19;;;;;;;5.63;3.77;;;13.40;99.90;;;14.33;100.00;98448.00;5079434;28;21154;-81
2023/09/07 04:56:51;;;;;;;6.07;3.47;;;13.30;99.90;;;14.25;100.00;98458.72;5080583;28;20609;-81
2023/09/07 04:59:23;;;;;;;4.80;3.27;;;13.20;99.90;;;14.30;100.00;98461.53;5080368;28;21130;-80
2023/09/07 05:01:51;;;;;;;16.07;4.83;;;13.20;99.90;;;14.21;100.00;98461.94;5078008;28;20490;-81
2023/09/07 05:04:22;;;;;;;4.17;3.40;;;13.30;99.90;;;14.13;100.00;98453.22;5079330;28;20470;-80
2023/09/07 05:06:52;;;;;;;4.40;3.47;;;13.30;99.90;;;14.21;100.00;98462.75;5077889;28;20463;-80
2023/09/07 05:09:23;;;;;;;4.57;3.33;;;13.20;99.90;;;14.27;100.00;98461.94;5077358;28;20498;-80
2023/09/07 05:11:53;;;;;;;4.77;3.47;;;13.20;99.90;;;14.25;100.00;98465.78;5077712;28;20455;-81
2023/09/07 05:14:25;;;;;;;10.90;3.97;;;13.20;99.90;;;14.19;100.00;98469.22;5078421;28;20466;-80
2023/09/07 05:16:57;;;;;;;5.37;3.60;;;13.20;99.90;;;14.18;100.00;98463.13;5078399;28;20487;-81
2023/09/07 05:19:28;;;;;;;10.50;4.40;;;13.20;99.90;;;14.16;100.00;98469.63;5079462;28;21142;-81
2023/09/07 05:21:59;;;;;;;4.30;3.53;;;13.20;99.90;;;14.16;100.00;98473.03;5078597;28;20487;-81
2023/09/07 05:24:30;;;;;;;4.67;3.30;;;13.10;99.90;;;14.18;100.00;98478.94;5078238;28;20538;-81
2023/09/07 05:26:59;;;;;;;5.73;3.10;;;13.10;99.90;;;14.24;100.00;98477.31;5077576;28;20456;-81
2023/09/07 05:29:32;;;;;;;7.13;3.60;;;13.20;99.90;;;14.18;100.00;98481.56;5079642;28;20463;-81
2023/09/07 05:32:03;;;;;;;6.20;3.50;;;13.20;99.90;;;14.19;100.00;98479.75;5076917;28;20460;-80
2023/09/07 05:34:33;;;;;;;7.90;3.77;;;13.10;99.90;;;14.17;100.00;98487.81;5075285;28;20482;-80
2023/09/07 05:37:04;;;;;;;4.77;3.63;;;13.00;99.90;;;14.15;100.00;98489.84;5077273;28;20543;-81
2023/09/07 05:39:33;;;;;;;5.47;3.53;;;13.10;99.90;;;14.17;100.00;98489.63;5075800;28;20459;-80
2023/09/07 05:42:03;;;;;;;4.13;3.60;;;13.10;99.90;;;14.17;100.00;98487.00;5078590;28;20853;-81
2023/09/07 05:44:34;;;;;;;5.33;4.03;;;13.10;99.90;;;14.17;100.00;98487.00;5077815;28;20467;-80
2023/09/07 05:47:06;;;;;;;11.63;3.70;;;13.20;99.90;;;14.17;100.00;98490.44;5077076;28;20466;-81
2023/09/07 05:49:35;;;;;;;11.90;3.70;;;13.20;99.90;;;14.21;100.00;98496.94;5077856;28;20871;-81
2023/09/07 05:52:06;;;;;;;7.17;3.83;;;13.20;99.90;;;14.23;100.00;98497.53;5078113;28;20471;-81
2023/09/07 05:54:38;;;;;;;4.77;3.70;;;13.20;99.90;;;14.23;100.00;98494.13;5075923;28;20471;-80
2023/09/07 05:57:08;;;;;;;6.70;3.77;;;13.20;99.90;;;14.24;100.00;98495.72;5075912;28;20464;-80
2023/09/07 05:59:40;;;;;;;5.20;3.87;;;13.20;99.90;;;14.26;100.00;98499.78;5077332;28;20744;-81
2023/09/07 06:02:10;;;;;;;6.97;4.17;;;13.30;99.90;;;14.29;100.00;98502.03;5074346;28;21431;-81
2023/09/07 06:04:41;;;;;;;6.43;4.60;;;13.30;99.90;;;14.32;100.00;98501.63;5077885;28;20883;-81
2023/09/07 06:07:10;;;;;;;5.60;3.60;;;13.20;99.90;;;14.34;100.00;98497.00;5074842;28;20456;-81
2023/09/07 06:09:40;;;;;;;5.47;3.67;;;13.30;99.90;;;14.37;100.00;98495.81;5075325;28;20862;-80
2023/09/07 06:12:09;;;;;;;8.33;3.97;;;13.40;99.90;;;14.40;100.00;98498.03;5074361;28;20474;-81
2023/09/07 06:14:41;;;;;;;5.10;3.63;;;13.40;99.90;;;14.46;100.00;98502.50;5075305;28;20463;-80
2023/09/07 06:17:12;;;;;;;6.40;4.00;;;13.40;99.90;;;14.48;100.00;98509.16;5074652;28;20476;-80
2023/09/07 06:19:42;;;;;;;3.73;2.90;;;13.50;99.90;;;14.49;100.00;98502.91;5076795;28;20544;-81
2023/09/07 06:22:13;;;;;;;8.43;4.33;;;13.50;99.90;;;14.55;100.00;98490.75;5074924;28;20957;-81
2023/09/07 06:24:43;;;;;;;14.43;5.00;;;13.50;99.90;;;14.55;100.00;98502.09;5074578;28;20456;-80
2023/09/07 06:27:13;;;;;;;5.30;3.77;;;13.60;99.90;;;14.56;100.00;98506.34;5079041;28;20462;-81
2023/09/07 06:29:45;;;;;;;6.63;3.73;;;13.60;99.90;;;14.58;100.00;98504.31;5077942;28;20546;-81
2023/09/07 06:32:16;;;;;;;4.80;3.43;;;13.70;99.90;;;14.65;100.00;98493.00;5076252;28;20526;-81
2023/09/07 06:34:47;;;;;;;7.10;3.73;;;13.70;99.90;;;14.68;100.00;98489.97;5076696;28;20534;-81
2023/09/07 06:37:18;;;;;;;5.70;3.83;;;13.70;99.90;;;14.73;100.00;98498.88;5077692;28;20468;-81
2023/09/07 06:39:47;;;;;;;7.73;3.57;;;13.80;99.90;;;14.79;100.00;98502.50;5076998;28;20463;-80
2023/09/07 06:42:17;;;;;;;5.70;3.50;;;13.80;99.90;;;14.84;100.00;98498.25;5074995;28;20606;-81
2023/09/07 06:44:48;;;;;;;7.90;3.87;;;13.80;99.90;;;14.85;100.00;98502.53;5077832;28;20474;-81
2023/09/07 06:47:19;;;;;;;8.57;3.40;;;13.90;99.90;;;14.90;100.00;98496.63;5077953;28;20506;-79
2023/09/07 06:49:48;;;;;;;9.30;3.70;;;13.90;99.90;;;14.90;100.00;98507.97;5074538;28;20468;-81
2023/09/07 06:52:18;;;;;;;13.13;4.00;;;14.00;99.90;;;14.96;100.00;98501.09;5075256;28;20492;-80
2023/09/07 06:54:47;;;;;;;5.83;3.57;;;14.00;99.90;;;15.01;100.00;98503.91;5076348;28;20893;-81
2023/09/07 06:57:18;;;;;;;5.73;3.80;;;14.10;99.90;;;15.06;100.00;98506.78;5075284;28;21090;-81
2023/09/07 06:59:49;;;;;;;5.63;3.70;;;14.10;99.90;;;15.09;100.00;98507.19;5075793;28;20466;-81
2023/09/07 07:02:18;;;;;;;5.80;3.60;;;14.20;99.90;;;15.15;100.00;98505.53;5074459;28;20464;-81
2023/09/07 07:04:47;;;;;;;6.33;4.43;;;14.10;99.90;;;15.18;100.00;98512.22;5074368;28;21029;-80
2023/09/07 07:07:17;;;;;;;6.00;3.77;;;14.30;99.90;;;15.23;100.00;98513.22;5074532;28;21686;-81
2023/09/07 07:09:47;;;;;;;14.43;4.00;;;14.40;99.90;;;15.30;100.00;98510.59;5076798;28;20556;-80
2023/09/07 07:12:18;;;;;;;5.30;3.40;;;14.40;99.90;;;15.34;100.00;98509.94;5074521;28;20490;-81
2023/09/07 07:14:50;;;;;;;9.30;4.27;;;14.40;99.90;;;15.41;100.00;98513.38;5073507;28;20452;-80
2023/09/07 07:17:21;;;;;;;9.87;4.20;;;14.50;99.90;;;15.47;100.00;98519.66;5072627;28;20484;-79
2023/09/07 07:19:51;;;;;;;4.60;3.47;;;14.50;99.90;;;15.51;100.00;98519.09;5073776;28;20472;-80
2023/09/07 07:22:22;;;;;;;7.13;4.77;;;14.60;99.90;;;15.55;100.00;98516.81;5075399;28;20981;-81
2023/09/07 07:24:52;;;;;;;9.70;3.83;;;14.60;99.90;;;15.63;100.00;98521.88;5073814;28;20551;-80
2023/09/07 07:27:23;;;;;;;5.83;4.70;;;14.70;99.90;;;15.68;100.00;98518.63;5075159;28;20452;-80
2023/09/07 07:29:55;;;;;;;5.43;4.00;;;14.80;99.90;;;15.74;100.00;98515.16;5073893;28;21267;-81
2023/09/07 07:32:25;;;;;;;4.43;3.70;;;14.90;99.90;;;15.80;100.00;98512.50;5073554;28;20511;-81
2023/09/07 07:34:55;;;;;;;5.63;3.50;;;14.90;99.90;;;15.88;100.00;98506.19;5074094;28;20454;-81
2023/09/07 07:37:25;;;;;;;6.17;3.83;;;15.00;99.90;;;15.94;100.00;98508.78;5075690;28;20472;-81
2023/09/07 07:39:55;;;;;;;5.03;3.30;;;15.10;99.90;;;16.00;100.00;98496.59;5073470;28;20973;-81
2023/09/07 07:42:26;;;;;;;5.60;3.53;;;15.20;99.90;;;16.10;100.00;98503.03;5073878;28;20554;-81
2023/09/07 07:44:58;;;;;;;7.43;3.90;;;15.20;99.90;;;16.18;100.00;98501.16;5074803;28;20463;-81
2023/09/07 07:47:28;;;;;;;10.10;4.40;;;15.30;99.90;;;16.24;100.00;98505.63;5075454;28;20470;-80
2023/09/07 07:49:59;;;;;;;8.60;3.90;;;15.50;99.90;;;16.31;100.00;98503.75;5075918;28;20460;-81
2023/09/07 07:52:29;;;;;;;9.63;3.97;;;15.50;99.90;;;16.39;100.00;98506.94;5075370;28;20929;-81
2023/09/07 07:55:00;;;;;;;6.37;4.00;;;15.60;99.90;;;16.48;100.00;98510.13;5075706;28;20543;-80
2023/09/07 07:57:30;;;;;;;8.10;4.23;;;15.70;99.90;;;16.54;100.00;98504.81;5075672;28;20547;-81
2023/09/07 08:00:03;;;;;;;6.47;3.97;;;15.70;99.90;;;16.59;100.00;98504.22;5075925;28;20460;-80
2023/09/07 08:02:34;;;;;;;7.87;4.37;;;15.80;99.90;;;16.65;100.00;98502.53;5076364;28;20443;-81
2023/09/07 08:05:05;;;;;;;5.30;4.10;;;15.80;99.90;;;16.71;100.00;98505.13;5077125;28;20462;-81
2023/09/07 08:07:35;;;;;;;5.00;4.10;;;15.90;99.90;;;16.77;100.00;98504.25;5076709;28;20460;-81
2023/09/07 08:10:08;;;;;;;7.57;3.60;;;16.00;99.90;;;16.83;100.00;98497.31;5075826;28;20946;-81
2023/09/07 08:12:38;;;;;;;6.33;3.90;;;16.00;99.90;;;16.90;100.00;98492.78;5074053;28;20511;-81
2023/09/07 08:15:14;;;;;;;6.70;3.60;;;16.10;99.90;;;16.95;100.00;98493.75;5075286;28;20973;-81
2023/09/07 08:17:43;;;;;;;5.13;3.67;;;16.20;99.90;;;17.01;100.00;98490.22;5075070;28;20455;-81
2023/09/07 08:20:15;;;;;;;5.70;4.50;;;16.30;99.90;;;17.08;100.00;98490.97;5074800;28;20459;-81
2023/09/07 08:22:45;;;;;;;6.53;3.90;;;16.30;99.90;;;17.14;100.00;98484.03;5075289;28;20882;-81
2023/09/07 08:25:16;;;;;;;4.67;3.43;;;16.40;99.90;;;17.21;100.00;98484.78;5075609;28;20487;-80
2023/09/07 08:27:47;;;;;;;6.10;3.90;;;16.50;99.90;;;17.26;100.00;98479.63;5074904;28;20555;-81
2023/09/07 08:30:18;;;;;;;7.40;4.10;;;16.60;99.90;;;17.32;100.00;98481.41;5076955;28;20554;-81
2023/09/07 08:32:51;;;;;;;5.63;4.20;;;16.60;99.90;;;17.40;100.00;98478.47;5076927;28;20917;-80
2023/09/07 08:35:26;;;;;;;7.47;3.90;;;16.70;99.90;;;17.48;100.00;98477.38;5078059;28;20467;-81
2023/09/07 08:37:57;;;;;;;9.33;3.80;;;16.80;99.90;;;17.54;100.00;98473.84;5077036;28;20466;-80
2023/09/07 08:40:29;;;;;;;6.10;3.80;;;16.80;99.90;;;17.62;100.00;98478.88;5078754;28;20470;-81
2023/09/07 08:43:04;;;;;;;4.43;3.77;;;16.90;99.90;;;17.69;100.00;98481.44;5076338;28;20833;-81
2023/09/07 08:45:47;;;;;;;4.70;3.53;;;17.00;99.90;;;17.76;100.00;98476.88;5079728;28;20475;-81
2023/09/07 08:48:20;;;;;;;4.93;3.60;;;17.10;99.90;;;17.84;100.00;98473.94;5079065;28;20496;-81
2023/09/07 08:50:52;;;;;;;4.13;3.50;;;17.20;99.90;;;17.92;100.00;98481.56;5078716;28;20547;-81
2023/09/07 08:53:23;;;;;;;5.77;3.70;;;17.20;99.90;;;18.00;100.00;98475.97;5080140;28;20486;-81
2023/09/07 08:55:52;;;;;;;6.50;3.60;;;17.30;99.90;;;18.07;100.00;98474.03;5077430;28;20463;-81
2023/09/07 08:58:23;;;;;;;3.40;3.07;;;17.40;99.90;;;18.17;100.00;98468.19;5076393;28;20951;-81
2023/09/07 09:00:57;;;;;;;5.77;3.40;;;17.50;99.90;;;18.24;100.00;98475.03;5077544;28;20464;-81
2023/09/07 09:03:37;;;;;;;13.30;3.93;;;17.60;99.90;;;18.32;100.00;98464.13;5078542;28;20455;-81
2023/09/07 09:06:09;;;;;;;5.27;3.67;;;17.70;99.90;;;18.42;100.00;98472.31;5077718;28;20551;-81
2023/09/07 09:08:48;;;;;;;6.80;3.40;;;17.80;99.90;;;18.49;100.00;98475.69;5078486;28;20556;-81
2023/09/07 09:11:19;;;;;;;7.43;4.87;;;17.90;99.90;;;18.58;100.00;98477.00;5077492;28;20460;-80
2023/09/07 09:13:49;;;;;;;6.03;3.03;;;18.00;99.90;;;18.68;100.00;98475.59;5077592;28;20471;-81
2023/09/07 09:16:22;;;;;;;8.63;3.47;;;18.10;99.90;;;18.75;100.00;98474.47;5077089;28;21016;-81
2023/09/07 09:18:53;;;;;;;4.40;3.63;;;18.10;99.90;;;18.82;100.00;98474.38;5076757;28;20483;-81
2023/09/07 09:21:27;;;;;;;7.10;3.70;;;18.20;99.90;;;18.89;100.00;98477.72;5077183;28;20466;-81
2023/09/07 09:24:00;;;;;;;4.70;3.50;;;18.30;99.90;;;18.94;100.00;98476.00;5076762;28;20833;-81
2023/09/07 09:26:30;;;;;;;5.43;3.43;;;18.40;99.90;;;19.03;100.00;98476.44;5075393;28;20514;-80
2023/09/07 09:29:02;;;;;;;4.57;3.77;;;18.50;99.90;;;19.10;100.00;98469.19;5076872;28;20455;-81
2023/09/07 09:31:35;;;;;;;8.90;3.70;;;18.50;99.90;;;19.15;100.00;98469.31;5076107;28;20465;-81
2023/09/07 09:34:06;;;;;;;6.03;3.83;;;18.60;99.90;;;19.21;100.00;98471.03;5077289;28;20556;-81
2023/09/07 09:36:37;;;;;;;5.27;3.70;;;18.60;99.90;;;19.28;100.00;98466.41;5076904;28;20542;-81
2023/09/07 09:39:07;;;;;;;5.27;3.60;;;18.70;99.90;;;19.34;100.00;98464.69;5077029;28;20491;-81
2023/09/07 09:41:38;;;;;;;6.77;3.80;;;18.80;99.90;;;19.44;100.00;98459.63;5076964;28;20485;-81
2023/09/07 09:44:10;;;;;;;4.33;3.57;;;18.90;99.90;;;19.51;100.00;98460.28;5079021;28;20501;-81
2023/09/07 09:46:43;;;;;;;5.73;4.07;;;19.00;99.90;;;19.56;100.00;98455.91;5079445;28;20468;-81
2023/09/07 09:49:14;;;;;;;4.00;3.60;;;19.00;99.90;;;19.67;100.00;98458.78;5080020;28;20521;-81
2023/09/07 09:51:46;;;;;;;5.10;3.70;;;19.10;99.90;;;19.72;100.00;98458.84;5076557;28;20468;-81
2023/09/07 09:54:18;;;;;;;3.90;3.50;;;19.10;99.90;;;19.75;100.00;98455.75;5078806;28;20464;-81
2023/09/07 09:56:47;;;;;;;4.83;3.10;;;19.20;99.90;;;19.82;100.00;98454.56;5077565;28;20468;-81
2023/09/07 09:59:17;;;;;;;8.53;3.10;;;19.20;99.90;;;19.87;100.00;98448.56;5079474;28;20458;-80
2023/09/07 10:01:50;;;;;;;6.80;3.43;;;19.30;99.90;;;19.94;100.00;98449.22;5079238;28;20951;-81
2023/09/07 10:04:22;;;;;;;5.57;3.70;;;19.40;99.90;;;19.99;100.00;98446.69;5076601;28;20468;-81
2023/09/07 10:06:56;;;;;;;5.40;3.23;;;19.40;99.90;;;20.07;100.00;98438.31;5077702;28;20963;-81
2023/09/07 10:09:32;;;;;;;6.43;4.40;;;19.50;99.90;;;20.12;100.00;98450.88;5077379;28;20974;-81
2023/09/07 10:12:08;;;;;;;5.13;3.47;;;19.50;99.90;;;20.22;100.00;98454.53;5079294;28;20456;-81
2023/09/07 10:14:41;;;;;;;5.30;3.47;;;19.70;99.90;;;20.30;100.00;98443.56;5076345;28;20502;-81
2023/09/07 10:17:24;;;;;;;5.63;3.13;;;19.70;99.90;;;20.35;100.00;98448.94;5078059;28;20531;-81
2023/09/07 10:20:06;;;;;;;7.53;3.57;;;19.80;99.90;;;20.41;100.00;98447.19;5073460;28;20897;-81
2023/09/07 10:22:36;;;;;;;6.00;4.10;;;19.80;99.90;;;20.49;100.00;98442.28;5075439;28;20554;-81
2023/09/07 10:25:11;;;;;;;4.93;3.30;;;19.90;99.90;;;20.56;100.00;98432.28;5077021;28;20817;-83
2023/09/07 10:27:42;;;;;;;6.60;3.60;;;20.00;99.90;;;20.62;100.00;98437.69;5076886;28;20469;-81